sensor_id;sensor_type;location;lat;lon;timestamp;pressure;altitude;pressure_sealevel;temperature;humidity
33155;BME280;19511;42.682;23.332;2022-09-29T00:00:05;94312.88;;;15.04;100.00
33155;BME280;19511;42.682;23.332;2022-09-29T00:02:35;94311.66;;;15.05;100.00
33155;BME280;19511;42.682;23.332;2022-09-29T00:05:01;94290.00;;;15.09;100.00
33155;BME280;19511;42.682;23.332;2022-09-29T00:07:30;94301.91;;;15.09;100.00
33155;BME280;19511;42.682;23.332;2022-09-29T00:09:56;94285.31;;;14.96;100.00
33155;BME280;19511;42.682;23.332;2022-09-29T00:12:22;94324.38;;;14.74;100.00
33155;BME280;19511;42.682;23.332;2022-09-29T00:14:47;94310.97;;;14.82;100.00
33155;BME280;19511;42.682;23.332;2022-09-29T00:17:13;94295.38;;;14.94;100.00
33155;BME280;19511;42.682;23.332;2022-09-29T00:19:38;94242.44;;;14.84;100.00
33155;BME280;19511;42.682;23.332;2022-09-29T00:22:04;94313.38;;;15.21;100.00
33155;BME280;19511;42.682;23.332;2022-09-29T00:24:29;94308.53;;;15.02;100.00
33155;BME280;19511;42.682;23.332;2022-09-29T00:26:55;94304.81;;;14.96;100.00
33155;BME280;19511;42.682;23.332;2022-09-29T00:29:21;94317.78;;;14.90;100.00
33155;BME280;19511;42.682;23.332;2022-09-29T00:31:47;94218.19;;;14.13;100.00
33155;BME280;19511;42.682;23.332;2022-09-29T00:34:20;94306.91;;;14.83;100.00
33155;BME280;19511;42.682;23.332;2022-09-29T00:36:45;94261.81;;;14.57;100.00
33155;BME280;19511;42.682;23.332;2022-09-29T00:39:11;94304.94;;;14.93;100.00
33155;BME280;19511;42.682;23.332;2022-09-29T00:41:39;94239.06;;;14.49;100.00
33155;BME280;19511;42.682;23.332;2022-09-29T00:46:48;94307.97;;;14.76;100.00
33155;BME280;19511;42.682;23.332;2022-09-29T00:51:49;94290.78;;;14.68;100.00
33155;BME280;19511;42.682;23.332;2022-09-29T00:54:22;94306.34;;;14.57;100.00
33155;BME280;19511;42.682;23.332;2022-09-29T00:56:57;94313.88;;;14.47;100.00
33155;BME280;19511;42.682;23.332;2022-09-29T00:59:38;94303.22;;;14.54;100.00
33155;BME280;19511;42.682;23.332;2022-09-29T01:02:04;94298.72;;;14.48;100.00
33155;BME280;19511;42.682;23.332;2022-09-29T01:04:38;94304.53;;;14.31;100.00
33155;BME280;19511;42.682;23.332;2022-09-29T01:07:05;94296.91;;;14.54;100.00
33155;BME280;19511;42.682;23.332;2022-09-29T01:09:39;94297.78;;;14.42;100.00
33155;BME280;19511;42.682;23.332;2022-09-29T01:12:06;94288.09;;;14.24;100.00
33155;BME280;19511;42.682;23.332;2022-09-29T01:14:32;94294.00;;;14.26;100.00
33155;BME280;19511;42.682;23.332;2022-09-29T01:16:59;94288.69;;;14.19;100.00
33155;BME280;19511;42.682;23.332;2022-09-29T01:19:59;94297.72;;;14.32;100.00
33155;BME280;19511;42.682;23.332;2022-09-29T01:25:58;94311.19;;;14.34;100.00
33155;BME280;19511;42.682;23.332;2022-09-29T01:28:38;94290.47;;;14.35;100.00
33155;BME280;19511;42.682;23.332;2022-09-29T01:39:35;94279.38;;;14.13;100.00
33155;BME280;19511;42.682;23.332;2022-09-29T01:42:11;94308.03;;;14.00;100.00
33155;BME280;19511;42.682;23.332;2022-09-29T01:44:41;94306.41;;;13.90;100.00
33155;BME280;19511;42.682;23.332;2022-09-29T01:47:13;94297.34;;;13.54;100.00
33155;BME280;19511;42.682;23.332;2022-09-29T01:49:43;94267.97;;;13.31;100.00
33155;BME280;19511;42.682;23.332;2022-09-29T01:52:16;94311.88;;;13.71;100.00
33155;BME280;19511;42.682;23.332;2022-09-29T01:54:52;94346.09;;;13.68;100.00
33155;BME280;19511;42.682;23.332;2022-09-29T02:00:06;94322.88;;;13.62;100.00
33155;BME280;19511;42.682;23.332;2022-09-29T02:02:45;94327.34;;;13.60;100.00
33155;BME280;19511;42.682;23.332;2022-09-29T02:05:18;94323.97;;;13.43;100.00
33155;BME280;19511;42.682;23.332;2022-09-29T02:07:46;94320.97;;;13.24;100.00
33155;BME280;19511;42.682;23.332;2022-09-29T02:10:36;94323.00;;;13.23;100.00
33155;BME280;19511;42.682;23.332;2022-09-29T02:13:06;94272.22;;;12.75;100.00
33155;BME280;19511;42.682;23.332;2022-09-29T02:15:34;94336.00;;;13.14;100.00
33155;BME280;19511;42.682;23.332;2022-09-29T02:18:10;94327.78;;;13.23;100.00
33155;BME280;19511;42.682;23.332;2022-09-29T02:20:37;94326.09;;;13.26;100.00
33155;BME280;19511;42.682;23.332;2022-09-29T02:23:03;94337.91;;;13.17;100.00
33155;BME280;19511;42.682;23.332;2022-09-29T02:25:35;94279.88;;;12.84;100.00
33155;BME280;19511;42.682;23.332;2022-09-29T02:28:06;94345.97;;;13.24;100.00
33155;BME280;19511;42.682;23.332;2022-09-29T02:30:32;94343.72;;;13.32;100.00
33155;BME280;19511;42.682;23.332;2022-09-29T02:32:58;94337.75;;;13.33;100.00
33155;BME280;19511;42.682;23.332;2022-09-29T02:35:50;94283.75;;;12.86;100.00
33155;BME280;19511;42.682;23.332;2022-09-29T02:38:55;94352.31;;;13.25;100.00
33155;BME280;19511;42.682;23.332;2022-09-29T02:41:42;94346.22;;;13.17;100.00
33155;BME280;19511;42.682;23.332;2022-09-29T02:58:34;94344.19;;;13.30;100.00
33155;BME280;19511;42.682;23.332;2022-09-29T03:00:59;94329.31;;;13.24;100.00
33155;BME280;19511;42.682;23.332;2022-09-29T03:03:25;94304.69;;;13.13;100.00
33155;BME280;19511;42.682;23.332;2022-09-29T03:05:51;94294.81;;;13.12;100.00
33155;BME280;19511;42.682;23.332;2022-09-29T03:08:16;94285.78;;;13.21;100.00
33155;BME280;19511;42.682;23.332;2022-09-29T03:10:47;94250.72;;;13.01;100.00
33155;BME280;19511;42.682;23.332;2022-09-29T03:13:13;94270.41;;;13.29;100.00
33155;BME280;19511;42.682;23.332;2022-09-29T03:15:39;94243.50;;;13.17;100.00
33155;BME280;19511;42.682;23.332;2022-09-29T03:18:04;94297.00;;;13.65;100.00
33155;BME280;19511;42.682;23.332;2022-09-29T03:20:31;94295.19;;;13.71;100.00
33155;BME280;19511;42.682;23.332;2022-09-29T03:22:57;94247.09;;;13.39;100.00
33155;BME280;19511;42.682;23.332;2022-09-29T03:25:23;94311.72;;;13.97;100.00
33155;BME280;19511;42.682;23.332;2022-09-29T03:27:49;94328.47;;;14.07;100.00
33155;BME280;19511;42.682;23.332;2022-09-29T03:30:16;94322.91;;;14.07;100.00
33155;BME280;19511;42.682;23.332;2022-09-29T03:32:42;94302.44;;;13.69;100.00
33155;BME280;19511;42.682;23.332;2022-09-29T03:35:08;94324.91;;;13.84;100.00
33155;BME280;19511;42.682;23.332;2022-09-29T03:37:34;94345.03;;;13.88;100.00
33155;BME280;19511;42.682;23.332;2022-09-29T03:40:00;94292.19;;;13.44;100.00
33155;BME280;19511;42.682;23.332;2022-09-29T03:42:26;94367.63;;;13.77;100.00
33155;BME280;19511;42.682;23.332;2022-09-29T03:44:53;94372.53;;;13.73;100.00
33155;BME280;19511;42.682;23.332;2022-09-29T03:47:22;94353.44;;;13.62;100.00
33155;BME280;19511;42.682;23.332;2022-09-29T03:49:48;94348.69;;;13.63;100.00
33155;BME280;19511;42.682;23.332;2022-09-29T03:52:13;94352.75;;;13.71;100.00
33155;BME280;19511;42.682;23.332;2022-09-29T03:54:39;94350.56;;;13.66;100.00
33155;BME280;19511;42.682;23.332;2022-09-29T03:57:04;94347.41;;;13.77;100.00
33155;BME280;19511;42.682;23.332;2022-09-29T03:59:30;94346.78;;;13.73;100.00
33155;BME280;19511;42.682;23.332;2022-09-29T04:01:55;94342.25;;;13.53;100.00
33155;BME280;19511;42.682;23.332;2022-09-29T04:04:21;94350.84;;;13.46;100.00
33155;BME280;19511;42.682;23.332;2022-09-29T04:06:46;94355.63;;;13.32;100.00
33155;BME280;19511;42.682;23.332;2022-09-29T04:09:15;94363.50;;;13.34;100.00
33155;BME280;19511;42.682;23.332;2022-09-29T04:11:40;94358.22;;;13.14;100.00
33155;BME280;19511;42.682;23.332;2022-09-29T04:14:06;94362.88;;;13.17;100.00
33155;BME280;19511;42.682;23.332;2022-09-29T04:16:31;94346.66;;;13.02;100.00
33155;BME280;19511;42.682;23.332;2022-09-29T04:18:57;94285.22;;;12.65;100.00
33155;BME280;19511;42.682;23.332;2022-09-29T04:21:22;94347.56;;;12.99;100.00
33155;BME280;19511;42.682;23.332;2022-09-29T04:23:48;94356.78;;;12.96;100.00
33155;BME280;19511;42.682;23.332;2022-09-29T04:26:14;94350.13;;;12.94;100.00
33155;BME280;19511;42.682;23.332;2022-09-29T04:28:40;94348.59;;;12.93;100.00
33155;BME280;19511;42.682;23.332;2022-09-29T04:31:05;94336.38;;;13.03;100.00
33155;BME280;19511;42.682;23.332;2022-09-29T04:33:35;94276.56;;;12.63;100.00
33155;BME280;19511;42.682;23.332;2022-09-29T04:36:01;94335.13;;;12.91;100.00
33155;BME280;19511;42.682;23.332;2022-09-29T04:38:26;94349.56;;;12.86;100.00
33155;BME280;19511;42.682;23.332;2022-09-29T04:40:52;94288.13;;;12.49;100.00
33155;BME280;19511;42.682;23.332;2022-09-29T04:43:17;94343.25;;;12.85;100.00
33155;BME280;19511;42.682;23.332;2022-09-29T04:45:50;94351.94;;;12.87;100.00
33155;BME280;19511;42.682;23.332;2022-09-29T04:48:22;94342.59;;;12.94;100.00
33155;BME280;19511;42.682;23.332;2022-09-29T04:50:47;94338.25;;;12.93;100.00
33155;BME280;19511;42.682;23.332;2022-09-29T04:53:15;94341.81;;;12.81;100.00
33155;BME280;19511;42.682;23.332;2022-09-29T04:55:41;94353.25;;;12.70;100.00
33155;BME280;19511;42.682;23.332;2022-09-29T04:58:06;94351.03;;;12.90;100.00
33155;BME280;19511;42.682;23.332;2022-09-29T05:00:32;94339.44;;;13.05;100.00
33155;BME280;19511;42.682;23.332;2022-09-29T05:02:58;94332.91;;;13.12;100.00
33155;BME280;19511;42.682;23.332;2022-09-29T05:05:24;94282.22;;;12.85;100.00
33155;BME280;19511;42.682;23.332;2022-09-29T05:07:49;94263.13;;;12.87;100.00
33155;BME280;19511;42.682;23.332;2022-09-29T05:10:15;94310.66;;;13.25;100.00
33155;BME280;19511;42.682;23.332;2022-09-29T05:12:46;94330.97;;;13.47;100.00
33155;BME280;19511;42.682;23.332;2022-09-29T05:15:12;94288.91;;;13.23;100.00
33155;BME280;19511;42.682;23.332;2022-09-29T05:17:38;94330.69;;;13.54;100.00
33155;BME280;19511;42.682;23.332;2022-09-29T05:20:04;94345.84;;;13.76;100.00
33155;BME280;19511;42.682;23.332;2022-09-29T05:22:30;94351.81;;;13.87;100.00
33155;BME280;19511;42.682;23.332;2022-09-29T05:24:55;94272.28;;;13.67;100.00
33155;BME280;19511;42.682;23.332;2022-09-29T05:27:21;94333.50;;;13.99;100.00
33155;BME280;19511;42.682;23.332;2022-09-29T05:29:46;94335.41;;;14.02;100.00
33155;BME280;19511;42.682;23.332;2022-09-29T05:32:12;94341.47;;;14.10;100.00
33155;BME280;19511;42.682;23.332;2022-09-29T05:34:37;94267.06;;;13.69;100.00
33155;BME280;19511;42.682;23.332;2022-09-29T05:37:03;94321.81;;;14.26;100.00
33155;BME280;19511;42.682;23.332;2022-09-29T05:39:29;94338.38;;;14.30;100.00
33155;BME280;19511;42.682;23.332;2022-09-29T05:41:58;94344.34;;;14.28;100.00
33155;BME280;19511;42.682;23.332;2022-09-29T05:46:50;94345.06;;;14.42;100.00
33155;BME280;19511;42.682;23.332;2022-09-29T05:49:15;94361.31;;;14.65;100.00
33155;BME280;19511;42.682;23.332;2022-09-29T05:51:42;94376.22;;;14.81;100.00
33155;BME280;19511;42.682;23.332;2022-09-29T05:54:08;94343.47;;;14.94;100.00
33155;BME280;19511;42.682;23.332;2022-09-29T05:56:33;94341.75;;;14.97;100.00
33155;BME280;19511;42.682;23.332;2022-09-29T05:58:58;94362.19;;;14.94;100.00
33155;BME280;19511;42.682;23.332;2022-09-29T06:01:25;94354.81;;;15.09;100.00
33155;BME280;19511;42.682;23.332;2022-09-29T06:03:55;94318.03;;;15.24;100.00
33155;BME280;19511;42.682;23.332;2022-09-29T06:06:24;94350.53;;;15.27;100.00
33155;BME280;19511;42.682;23.332;2022-09-29T06:08:51;94366.81;;;15.38;100.00
33155;BME280;19511;42.682;23.332;2022-09-29T06:11:19;94375.66;;;15.55;100.00
33155;BME280;19511;42.682;23.332;2022-09-29T06:13:46;94370.09;;;15.55;100.00
33155;BME280;19511;42.682;23.332;2022-09-29T06:16:13;94366.84;;;15.56;100.00
33155;BME280;19511;42.682;23.332;2022-09-29T06:18:39;94366.84;;;15.65;100.00
33155;BME280;19511;42.682;23.332;2022-09-29T06:21:09;94361.91;;;15.79;100.00
33155;BME280;19511;42.682;23.332;2022-09-29T06:23:36;94355.13;;;15.89;100.00
33155;BME280;19511;42.682;23.332;2022-09-29T06:26:04;94367.06;;;15.99;100.00
33155;BME280;19511;42.682;23.332;2022-09-29T06:28:30;94319.94;;;15.73;100.00
33155;BME280;19511;42.682;23.332;2022-09-29T06:31:01;94360.41;;;15.96;100.00
33155;BME280;19511;42.682;23.332;2022-09-29T06:33:28;94383.31;;;16.19;100.00
33155;BME280;19511;42.682;23.332;2022-09-29T06:35:54;94375.84;;;16.35;100.00
33155;BME280;19511;42.682;23.332;2022-09-29T06:38:39;94346.22;;;16.46;100.00
33155;BME280;19511;42.682;23.332;2022-09-29T06:41:26;94370.88;;;16.39;100.00
33155;BME280;19511;42.682;23.332;2022-09-29T06:43:52;94378.16;;;16.45;100.00
33155;BME280;19511;42.682;23.332;2022-09-29T06:46:18;94331.84;;;16.29;100.00
33155;BME280;19511;42.682;23.332;2022-09-29T06:48:44;94339.84;;;16.55;100.00
33155;BME280;19511;42.682;23.332;2022-09-29T06:51:09;94332.13;;;16.41;100.00
33155;BME280;19511;42.682;23.332;2022-09-29T06:53:34;94312.91;;;16.33;100.00
33155;BME280;19511;42.682;23.332;2022-09-29T06:56:01;94351.75;;;16.65;100.00
33155;BME280;19511;42.682;23.332;2022-09-29T06:58:27;94368.75;;;16.86;100.00
33155;BME280;19511;42.682;23.332;2022-09-29T07:00:53;94370.00;;;16.85;100.00
33155;BME280;19511;42.682;23.332;2022-09-29T07:03:20;94397.16;;;16.84;100.00
33155;BME280;19511;42.682;23.332;2022-09-29T07:05:46;94393.59;;;16.93;100.00
33155;BME280;19511;42.682;23.332;2022-09-29T07:08:11;94338.28;;;16.63;100.00
33155;BME280;19511;42.682;23.332;2022-09-29T07:10:37;94332.06;;;16.59;100.00
33155;BME280;19511;42.682;23.332;2022-09-29T07:13:02;94383.78;;;16.97;100.00
33155;BME280;19511;42.682;23.332;2022-09-29T07:15:28;94386.50;;;17.16;100.00
33155;BME280;19511;42.682;23.332;2022-09-29T07:17:57;94385.94;;;17.36;100.00
33155;BME280;19511;42.682;23.332;2022-09-29T07:20:24;94379.81;;;17.47;100.00
33155;BME280;19511;42.682;23.332;2022-09-29T07:22:50;94371.81;;;17.64;100.00
33155;BME280;19511;42.682;23.332;2022-09-29T07:25:15;94329.47;;;17.32;100.00
33155;BME280;19511;42.682;23.332;2022-09-29T07:27:41;94374.38;;;17.77;100.00
33155;BME280;19511;42.682;23.332;2022-09-29T07:30:07;94298.28;;;17.49;100.00
33155;BME280;19511;42.682;23.332;2022-09-29T07:32:33;94372.28;;;17.87;100.00
33155;BME280;19511;42.682;23.332;2022-09-29T07:34:58;94374.94;;;17.81;100.00
33155;BME280;19511;42.682;23.332;2022-09-29T07:37:27;94352.56;;;17.81;100.00
33155;BME280;19511;42.682;23.332;2022-09-29T07:39:53;94370.91;;;17.82;100.00
33155;BME280;19511;42.682;23.332;2022-09-29T07:42:19;94329.63;;;17.77;100.00
33155;BME280;19511;42.682;23.332;2022-09-29T07:44:46;94375.28;;;18.22;100.00
33155;BME280;19511;42.682;23.332;2022-09-29T07:47:12;94373.56;;;18.25;100.00
33155;BME280;19511;42.682;23.332;2022-09-29T07:49:38;94363.53;;;18.33;100.00
33155;BME280;19511;42.682;23.332;2022-09-29T07:52:03;94370.78;;;18.40;100.00
33155;BME280;19511;42.682;23.332;2022-09-29T07:54:29;94293.97;;;17.87;100.00
33155;BME280;19511;42.682;23.332;2022-09-29T08:00:21;94393.78;;;18.59;100.00
33155;BME280;19511;42.682;23.332;2022-09-29T08:02:46;94387.31;;;18.83;100.00
33155;BME280;19511;42.682;23.332;2022-09-29T08:05:12;94392.94;;;18.98;100.00
33155;BME280;19511;42.682;23.332;2022-09-29T08:07:37;94397.47;;;19.10;100.00
33155;BME280;19511;42.682;23.332;2022-09-29T08:10:04;94395.94;;;18.94;100.00
33155;BME280;19511;42.682;23.332;2022-09-29T08:12:29;94359.19;;;18.77;100.00
33155;BME280;19511;42.682;23.332;2022-09-29T08:14:55;94400.94;;;19.05;100.00
33155;BME280;19511;42.682;23.332;2022-09-29T08:17:21;94401.41;;;19.18;100.00
33155;BME280;19511;42.682;23.332;2022-09-29T08:19:46;94408.53;;;19.34;100.00
33155;BME280;19511;42.682;23.332;2022-09-29T08:22:12;94414.69;;;19.53;100.00
33155;BME280;19511;42.682;23.332;2022-09-29T08:24:38;94408.94;;;19.63;100.00
33155;BME280;19511;42.682;23.332;2022-09-29T08:27:05;94404.19;;;19.69;100.00
33155;BME280;19511;42.682;23.332;2022-09-29T08:29:32;94402.94;;;19.70;100.00
33155;BME280;19511;42.682;23.332;2022-09-29T08:34:30;94413.03;;;19.97;100.00
33155;BME280;19511;42.682;23.332;2022-09-29T08:36:56;94416.53;;;20.13;100.00
33155;BME280;19511;42.682;23.332;2022-09-29T08:39:22;94361.56;;;19.85;100.00
33155;BME280;19511;42.682;23.332;2022-09-29T08:44:36;94404.94;;;20.26;100.00
33155;BME280;19511;42.682;23.332;2022-09-29T08:52:33;94398.19;;;20.17;100.00
33155;BME280;19511;42.682;23.332;2022-09-29T08:56:20;94388.81;;;20.20;100.00
33155;BME280;19511;42.682;23.332;2022-09-29T08:58:15;94404.31;;;20.16;100.00
33155;BME280;19511;42.682;23.332;2022-09-29T09:06:09;94402.16;;;20.73;100.00
33155;BME280;19511;42.682;23.332;2022-09-29T09:11:35;94343.06;;;20.41;100.00
33155;BME280;19511;42.682;23.332;2022-09-29T09:17:20;94398.34;;;20.76;100.00
33155;BME280;19511;42.682;23.332;2022-09-29T09:23:28;94406.00;;;20.75;100.00
33155;BME280;19511;42.682;23.332;2022-09-29T09:25:54;94403.13;;;20.96;100.00
33155;BME280;19511;42.682;23.332;2022-09-29T09:28:26;94399.03;;;20.97;100.00
33155;BME280;19511;42.682;23.332;2022-09-29T09:31:05;94395.03;;;20.77;100.00
33155;BME280;19511;42.682;23.332;2022-09-29T09:33:40;94401.56;;;20.95;100.00
33155;BME280;19511;42.682;23.332;2022-09-29T09:36:46;94384.81;;;21.06;100.00
33155;BME280;19511;42.682;23.332;2022-09-29T09:39:18;94381.09;;;21.20;100.00
33155;BME280;19511;42.682;23.332;2022-09-29T09:41:49;94386.59;;;21.41;100.00
33155;BME280;19511;42.682;23.332;2022-09-29T09:44:23;94373.13;;;21.51;100.00
33155;BME280;19511;42.682;23.332;2022-09-29T09:46:58;94347.22;;;21.41;100.00
33155;BME280;19511;42.682;23.332;2022-09-29T09:49:41;94392.72;;;21.77;100.00
33155;BME280;19511;42.682;23.332;2022-09-29T09:52:16;94390.50;;;21.93;100.00
33155;BME280;19511;42.682;23.332;2022-09-29T09:54:53;94388.53;;;22.10;100.00
33155;BME280;19511;42.682;23.332;2022-09-29T09:57:35;94382.44;;;22.17;100.00
33155;BME280;19511;42.682;23.332;2022-09-29T10:00:11;94386.66;;;21.90;100.00
33155;BME280;19511;42.682;23.332;2022-09-29T10:02:50;94378.25;;;22.01;100.00
33155;BME280;19511;42.682;23.332;2022-09-29T10:05:19;94386.56;;;22.28;100.00
33155;BME280;19511;42.682;23.332;2022-09-29T10:07:45;94387.69;;;22.59;100.00
33155;BME280;19511;42.682;23.332;2022-09-29T10:10:18;94381.06;;;22.73;100.00
33155;BME280;19511;42.682;23.332;2022-09-29T10:12:46;94387.22;;;22.72;100.00
33155;BME280;19511;42.682;23.332;2022-09-29T10:15:19;94376.97;;;22.63;100.00
33155;BME280;19511;42.682;23.332;2022-09-29T10:17:54;94381.31;;;22.58;100.00
33155;BME280;19511;42.682;23.332;2022-09-29T10:20:34;94375.66;;;22.53;100.00
33155;BME280;19511;42.682;23.332;2022-09-29T10:26:15;94379.06;;;22.08;100.00
33155;BME280;19511;42.682;23.332;2022-09-29T10:28:53;94333.47;;;21.54;100.00
33155;BME280;19511;42.682;23.332;2022-09-29T10:31:20;94387.22;;;21.94;100.00
33155;BME280;19511;42.682;23.332;2022-09-29T10:36:53;94328.28;;;21.85;100.00
33155;BME280;19511;42.682;23.332;2022-09-29T10:39:39;94380.94;;;22.22;100.00
33155;BME280;19511;42.682;23.332;2022-09-29T10:42:31;94387.81;;;22.21;100.00
33155;BME280;19511;42.682;23.332;2022-09-29T10:50:28;94372.56;;;21.90;100.00
33155;BME280;19511;42.682;23.332;2022-09-29T10:55:26;94357.78;;;22.01;100.00
33155;BME280;19511;42.682;23.332;2022-09-29T10:57:56;94375.09;;;22.37;100.00
33155;BME280;19511;42.682;23.332;2022-09-29T11:00:34;94368.25;;;22.61;100.00
33155;BME280;19511;42.682;23.332;2022-09-29T11:05:55;94357.00;;;22.95;100.00
33155;BME280;19511;42.682;23.332;2022-09-29T11:08:23;94357.50;;;22.99;100.00
33155;BME280;19511;42.682;23.332;2022-09-29T11:11:19;94355.47;;;23.22;100.00
33155;BME280;19511;42.682;23.332;2022-09-29T11:13:47;94356.50;;;23.36;100.00
33155;BME280;19511;42.682;23.332;2022-09-29T11:18:42;94307.00;;;22.95;100.00
33155;BME280;19511;42.682;23.332;2022-09-29T11:32:48;94289.06;;;22.70;97.94
33155;BME280;19511;42.682;23.332;2022-09-29T11:41:29;94342.66;;;23.15;100.00
33155;BME280;19511;42.682;23.332;2022-09-29T11:44:47;94330.34;;;23.02;99.95
33155;BME280;19511;42.682;23.332;2022-09-29T12:06:27;94340.09;;;23.40;96.97
33155;BME280;19511;42.682;23.332;2022-09-29T12:17:28;94334.88;;;23.78;99.57
33155;BME280;19511;42.682;23.332;2022-09-29T12:20:05;94304.91;;;23.58;96.38
33155;BME280;19511;42.682;23.332;2022-09-29T12:22:38;94324.63;;;23.64;96.28
33155;BME280;19511;42.682;23.332;2022-09-29T12:25:04;94321.28;;;23.71;94.83
33155;BME280;19511;42.682;23.332;2022-09-29T12:27:35;94272.06;;;23.50;92.83
33155;BME280;19511;42.682;23.332;2022-09-29T12:30:05;94333.22;;;24.11;91.43
33155;BME280;19511;42.682;23.332;2022-09-29T12:32:41;94330.03;;;24.32;90.25
33155;BME280;19511;42.682;23.332;2022-09-29T12:37:42;94328.84;;;24.58;90.01
33155;BME280;19511;42.682;23.332;2022-09-29T12:40:27;94338.03;;;24.75;90.53
33155;BME280;19511;42.682;23.332;2022-09-29T12:49:03;94320.81;;;24.73;86.75
33155;BME280;19511;42.682;23.332;2022-09-29T12:51:36;94326.72;;;24.75;84.72
33155;BME280;19511;42.682;23.332;2022-09-29T12:56:37;94332.97;;;24.57;88.91
33155;BME280;19511;42.682;23.332;2022-09-29T13:01:39;94330.66;;;24.61;85.02
33155;BME280;19511;42.682;23.332;2022-09-29T13:29:11;94335.09;;;24.51;91.26
33155;BME280;19511;42.682;23.332;2022-09-29T13:31:38;94330.44;;;24.53;88.45
33155;BME280;19511;42.682;23.332;2022-09-29T13:34:05;94334.09;;;24.42;88.29
33155;BME280;19511;42.682;23.332;2022-09-29T13:36:38;94338.47;;;24.43;91.53
33155;BME280;19511;42.682;23.332;2022-09-29T13:39:19;94345.13;;;24.40;91.63
33155;BME280;19511;42.682;23.332;2022-09-29T13:41:46;94337.53;;;24.24;88.31
33155;BME280;19511;42.682;23.332;2022-09-29T13:44:26;94324.00;;;24.05;90.69
33155;BME280;19511;42.682;23.332;2022-09-29T13:46:53;94343.97;;;24.19;91.20
33155;BME280;19511;42.682;23.332;2022-09-29T13:49:26;94341.09;;;24.30;93.52
33155;BME280;19511;42.682;23.332;2022-09-29T13:52:38;94293.97;;;24.02;94.39
33155;BME280;19511;42.682;23.332;2022-09-29T13:54:45;94350.09;;;24.34;94.60
33155;BME280;19511;42.682;23.332;2022-09-29T13:59:42;94357.25;;;24.35;95.07
33155;BME280;19511;42.682;23.332;2022-09-29T14:02:38;94361.16;;;24.26;94.00
33155;BME280;19511;42.682;23.332;2022-09-29T14:10:40;94351.00;;;23.89;100.00
33155;BME280;19511;42.682;23.332;2022-09-29T14:13:30;94361.06;;;23.73;100.00
33155;BME280;19511;42.682;23.332;2022-09-29T14:16:20;94353.41;;;23.57;100.00
33155;BME280;19511;42.682;23.332;2022-09-29T14:19:50;94365.97;;;23.50;100.00
33155;BME280;19511;42.682;23.332;2022-09-29T14:21:54;94359.84;;;23.23;100.00
33155;BME280;19511;42.682;23.332;2022-09-29T14:27:26;94370.34;;;23.00;100.00
33155;BME280;19511;42.682;23.332;2022-09-29T14:32:56;94398.22;;;22.75;100.00
33155;BME280;19511;42.682;23.332;2022-09-29T14:37:58;94370.69;;;22.25;100.00
33155;BME280;19511;42.682;23.332;2022-09-29T14:40:24;94401.16;;;22.26;100.00
33155;BME280;19511;42.682;23.332;2022-09-29T14:52:14;94491.53;;;20.12;100.00
33155;BME280;19511;42.682;23.332;2022-09-29T14:57:38;94488.03;;;19.31;100.00
33155;BME280;19511;42.682;23.332;2022-09-29T15:00:35;94494.38;;;19.02;100.00
33155;BME280;19511;42.682;23.332;2022-09-29T15:03:06;94507.81;;;18.58;100.00
33155;BME280;19511;42.682;23.332;2022-09-29T15:05:34;94508.63;;;18.35;100.00
33155;BME280;19511;42.682;23.332;2022-09-29T15:08:01;94489.09;;;18.25;100.00
33155;BME280;19511;42.682;23.332;2022-09-29T15:10:28;94490.44;;;18.54;100.00
33155;BME280;19511;42.682;23.332;2022-09-29T15:13:24;94449.41;;;18.27;100.00
33155;BME280;19511;42.682;23.332;2022-09-29T15:18:57;94484.19;;;17.87;100.00
33155;BME280;19511;42.682;23.332;2022-09-29T15:26:39;94489.91;;;17.59;100.00
33155;BME280;19511;42.682;23.332;2022-09-29T15:29:06;94474.88;;;17.47;100.00
33155;BME280;19511;42.682;23.332;2022-09-29T15:31:34;94489.50;;;17.42;100.00
33155;BME280;19511;42.682;23.332;2022-09-29T15:34:01;94493.38;;;17.44;100.00
33155;BME280;19511;42.682;23.332;2022-09-29T15:36:36;94466.00;;;17.15;100.00
33155;BME280;19511;42.682;23.332;2022-09-29T15:39:05;94468.50;;;17.13;100.00
33155;BME280;19511;42.682;23.332;2022-09-29T15:41:33;94469.72;;;17.12;100.00
33155;BME280;19511;42.682;23.332;2022-09-29T15:44:02;94475.97;;;17.07;100.00
33155;BME280;19511;42.682;23.332;2022-09-29T15:46:47;94522.16;;;17.26;100.00
33155;BME280;19511;42.682;23.332;2022-09-29T15:49:18;94524.31;;;17.32;100.00
33155;BME280;19511;42.682;23.332;2022-09-29T15:52:10;94532.97;;;17.52;100.00
33155;BME280;19511;42.682;23.332;2022-09-29T15:54:39;94523.66;;;17.46;100.00
33155;BME280;19511;42.682;23.332;2022-09-29T15:57:27;94531.69;;;17.53;100.00
33155;BME280;19511;42.682;23.332;2022-09-29T16:05:20;94517.66;;;17.29;100.00
33155;BME280;19511;42.682;23.332;2022-09-29T16:07:55;94534.41;;;17.38;100.00
33155;BME280;19511;42.682;23.332;2022-09-29T16:10:27;94537.22;;;17.29;100.00
33155;BME280;19511;42.682;23.332;2022-09-29T16:13:03;94542.97;;;17.25;100.00
33155;BME280;19511;42.682;23.332;2022-09-29T16:18:00;94539.28;;;17.10;100.00
33155;BME280;19511;42.682;23.332;2022-09-29T16:20:31;94549.19;;;17.20;100.00
33155;BME280;19511;42.682;23.332;2022-09-29T16:23:08;94565.97;;;17.11;100.00
33155;BME280;19511;42.682;23.332;2022-09-29T16:25:41;94547.53;;;17.04;100.00
33155;BME280;19511;42.682;23.332;2022-09-29T16:28:22;94572.00;;;17.19;100.00
33155;BME280;19511;42.682;23.332;2022-09-29T16:31:18;94589.84;;;17.30;100.00